< < Back
Terminal Aerodrome Forecast


Current Version              Previous Versions:   1  2  3  4  5  6  7  8  9  

Terminal Aerodrome Forecast

928
FTUS44 KOHX 082325
TAFCSV
TAF
KCSV 082325Z 0900/0924 27011G18KT 3SM -SN BR BKN009 OVC015
      TEMPO 0900/0904 1/2SM SN FZFG VV003
     FM091100 30008G18KT 3SM -SN BR OVC015=

Latest METAR

766
SAUS70 KWBC 090500 RRE
MTRCSV
METAR KCSV 090453Z AUTO 28011G19KT 7SM -SN BKN018 BKN022 OVC100 M04/M08
A2977 RMK AO2 SNE11B46 SLP091 P0000 T10391078


USA.gov is the U.S. government's official web portal to all federal, state and local government web resources and services.